Time;durP1;ratioP1;P1;durP2;ratioP2;P2;SDS_P1;SDS_P2;PMS_P1;PMS_P2;Temp;Humidity;BMP_temperature;BMP_pressure;BME280_temperature;BME280_humidity;BME280_pressure;Samples;Min_cycle;Max_cycle;Signal;HPM_P1;HPM_P2
2021/06/05 00:00:59;;;;;;;;;;;;;;;22.39;52.27;102168.16;2201932;39;113811;-53
2021/06/05 00:02:31;;;;;;;;;;;;;;;22.39;52.33;102163.34;2197651;39;114732;-53
2021/06/05 00:04:03;;;;;;;;;;;;;;;22.39;52.47;102166.19;2198166;39;114746;-53
2021/06/05 00:05:37;;;;;;;;;;;;;;;22.42;52.55;102171.22;2201877;39;115840;-53
2021/06/05 00:07:09;;;;;;;;;;;;;;;22.44;52.51;102165.31;2198082;39;115759;-53
2021/06/05 00:08:41;;;;;;;;;;;;;;;22.43;52.34;102170.09;2200230;39;114551;-53
2021/06/05 00:10:14;;;;;;;;;;;;;;;22.47;52.47;102171.19;2197265;39;115450;-53
2021/06/05 00:11:46;;;;;;;;;;;;;;;22.46;52.43;102175.13;2200982;39;115484;-53
2021/06/05 00:13:20;;;;;;;;;;;;;;;22.48;52.68;102180.47;2203618;39;115556;-54
2021/06/05 00:14:52;;;;;;;;;;;;;;;22.46;52.51;102183.56;2195700;39;114624;-53
2021/06/05 00:16:26;;;;;;;;;;;;;;;22.48;52.57;102183.28;2198145;39;114973;-53
2021/06/05 00:17:58;;;;;;;;;;;;;;;22.48;52.79;102177.66;2197710;39;115817;-54
2021/06/05 00:19:30;;;;;;;;;;;;;;;22.48;52.60;102172.88;2192054;39;115441;-53
2021/06/05 00:21:03;;;;;;;;;;;;;;;22.47;52.76;102168.38;2194875;39;116403;-53
2021/06/05 00:22:36;;;;;;;;;;;;;;;22.49;52.83;102168.06;2197016;39;115523;-54
2021/06/05 00:24:09;;;;;;;;;;;;;;;22.47;52.96;102170.34;2199898;39;115492;-53
2021/06/05 00:25:42;;;;;;;;;;;;;;;22.49;52.76;102170.88;2199292;39;116917;-57
2021/06/05 00:27:13;;;;;;;;;;;;;;;22.49;52.85;102168.91;2201383;39;115715;-52
2021/06/05 00:28:48;;;;;;;;;;;;;;;22.47;52.93;102165.56;2197771;39;113962;-53
2021/06/05 00:30:20;;;;;;;;;;;;;;;22.48;52.82;102170.06;2198407;39;113924;-53
2021/06/05 00:31:52;;;;;;;;;;;;;;;22.49;53.04;102168.06;2198972;39;113683;-54
2021/06/05 00:33:24;;;;;;;;;;;;;;;22.48;53.39;102166.41;2198027;39;113995;-53
2021/06/05 00:34:56;;;;;;;;;;;;;;;22.49;53.29;102165.22;2196505;39;113862;-54
2021/06/05 00:36:28;;;;;;;;;;;;;;;22.50;53.27;102169.75;2197395;39;113754;-53
2021/06/05 00:38:00;;;;;;;;;;;;;;;22.49;53.63;102173.69;2198682;39;113741;-53
2021/06/05 00:39:32;;;;;;;;;;;;;;;22.50;53.44;102167.78;2198708;39;114178;-53
2021/06/05 00:41:05;;;;;;;;;;;;;;;22.50;53.63;102175.38;2198225;39;113754;-52
2021/06/05 00:42:37;;;;;;;;;;;;;;;22.50;53.63;102178.19;2200230;39;113847;-53
2021/06/05 00:44:10;;;;;;;;;;;;;;;22.50;53.84;102173.41;2202450;39;113773;-52
2021/06/05 00:45:43;;;;;;;;;;;;;;;22.51;53.95;102169.47;2195986;39;113657;-53
2021/06/05 00:47:15;;;;;;;;;;;;;;;22.51;53.95;102175.09;2197497;39;114060;-53
2021/06/05 00:48:47;;;;;;;;;;;;;;;22.51;54.48;102175.09;2202160;39;113790;-54
2021/06/05 00:50:19;;;;;;;;;;;;;;;22.53;53.98;102181.25;2195638;39;114725;-53
2021/06/05 00:51:53;;;;;;;;;;;;;;;22.52;53.88;102179.59;2198395;39;114686;-54
2021/06/05 00:53:26;;;;;;;;;;;;;;;22.51;54.10;102177.91;2199287;39;115578;-53
2021/06/05 00:54:58;;;;;;;;;;;;;;;22.54;53.94;102176.47;2195634;39;114816;-53
2021/06/05 00:56:30;;;;;;;;;;;;;;;22.54;54.08;102180.13;2192910;39;114865;-56
2021/06/05 00:58:02;;;;;;;;;;;;;;;22.53;54.16;102174.81;2196766;39;114651;-53
2021/06/05 00:59:35;;;;;;;;;;;;;;;22.53;54.30;102186.88;2193937;39;114828;-55
2021/06/05 01:01:10;;;;;;;;;;;;;;;22.53;54.22;102183.25;2197888;39;114819;-52
2021/06/05 01:02:43;;;;;;;;;;;;;;;22.52;54.24;102179.59;2192959;39;114874;-53
2021/06/05 01:04:16;;;;;;;;;;;;;;;22.54;54.26;102174.50;2197949;39;114729;-54
2021/06/05 01:05:51;;;;;;;;;;;;;;;22.53;54.46;102183.25;2195204;39;114774;-52
2021/06/05 01:07:25;;;;;;;;;;;;;;;22.54;54.54;102170.84;2195362;39;114759;-52
2021/06/05 01:09:00;;;;;;;;;;;;;;;22.54;54.36;102180.13;2200449;39;114737;-52
2021/06/05 01:10:33;;;;;;;;;;;;;;;22.57;54.34;102178.72;2198196;39;114172;-52
2021/06/05 01:12:09;;;;;;;;;;;;;;;22.61;54.53;102174.19;2194322;39;115504;-53
2021/06/05 01:13:46;;;;;;;;;;;;;;;22.64;54.45;102170.78;2192613;39;115562;-53
2021/06/05 01:15:18;;;;;;;;;;;;;;;22.61;54.47;102175.03;2190908;39;115626;-53
2021/06/05 01:16:52;;;;;;;;;;;;;;;22.63;54.56;102172.75;2196062;39;116225;-51
2021/06/05 01:18:26;;;;;;;;;;;;;;;22.65;54.66;102174.44;2195059;39;115431;-53
2021/06/05 01:19:58;;;;;;;;;;;;;;;22.63;54.83;102178.38;2196536;39;114007;-53
2021/06/05 01:21:33;;;;;;;;;;;;;;;22.65;54.64;102178.09;2195829;39;115614;-53
2021/06/05 01:23:08;;;;;;;;;;;;;;;22.66;54.72;102181.75;2195193;39;116048;-52
2021/06/05 01:24:40;;;;;;;;;;;;;;;22.66;54.59;102178.94;2195385;39;114561;-52
2021/06/05 01:26:15;;;;;;;;;;;;;;;22.65;54.74;102175.28;2198597;39;115498;-55
2021/06/05 01:27:52;;;;;;;;;;;;;;;22.66;54.73;102181.75;2195333;39;115632;-53
2021/06/05 01:29:25;;;;;;;;;;;;;;;22.65;54.98;102182.88;2195380;39;115478;-52
2021/06/05 01:31:00;;;;;;;;;;;;;;;22.68;54.63;102173.84;2197791;39;115430;-52
2021/06/05 01:32:32;;;;;;;;;;;;;;;22.69;54.71;102179.19;2200433;39;115416;-53
2021/06/05 01:34:05;;;;;;;;;;;;;;;22.72;54.84;102174.97;2195355;39;113808;-54
2021/06/05 01:35:37;;;;;;;;;;;;;;;22.73;54.71;102187.91;2197674;39;113948;-52
2021/06/05 01:37:10;;;;;;;;;;;;;;;22.74;54.66;102178.34;2197850;39;113651;-52
2021/06/05 01:38:45;;;;;;;;;;;;;;;22.75;54.69;102180.88;2199104;39;113977;-53
2021/06/05 01:40:17;;;;;;;;;;;;;;;22.76;54.64;102176.09;2199639;39;113779;-53
2021/06/05 01:41:50;;;;;;;;;;;;;;;22.73;54.65;102177.50;2195738;39;113868;-53
2021/06/05 01:43:24;;;;;;;;;;;;;;;22.76;54.61;102182.53;2194497;39;113800;-53
2021/06/05 01:44:57;;;;;;;;;;;;;;;22.75;54.91;102183.69;2192133;39;113874;-53
2021/06/05 01:46:32;;;;;;;;;;;;;;;22.75;54.89;102182.84;2195347;39;113890;-53
2021/06/05 01:48:06;;;;;;;;;;;;;;;22.74;54.97;102179.19;2195260;39;113738;-52
2021/06/05 01:49:37;;;;;;;;;;;;;;;22.76;54.87;102179.72;2193936;39;113811;-52
2021/06/05 01:51:13;;;;;;;;;;;;;;;22.75;54.88;102183.69;2196837;39;113797;-53
2021/06/05 01:52:45;;;;;;;;;;;;;;;22.74;54.98;102183.97;2198498;39;114101;-52
2021/06/05 01:54:19;;;;;;;;;;;;;;;22.74;54.78;102189.63;2197352;39;113912;-52
2021/06/05 01:55:54;;;;;;;;;;;;;;;22.75;54.93;102183.69;2196602;39;113764;-52
2021/06/05 01:57:28;;;;;;;;;;;;;;;22.75;55.03;102186.50;2198981;39;114757;-53
2021/06/05 01:59:00;;;;;;;;;;;;;;;22.75;55.08;102180.03;2194074;39;113861;-53
2021/06/05 02:00:34;;;;;;;;;;;;;;;22.75;55.10;102185.66;2196275;39;114985;-52
2021/06/05 02:02:07;;;;;;;;;;;;;;;22.77;55.16;102172.94;2195318;39;114853;-53
2021/06/05 02:03:40;;;;;;;;;;;;;;;22.76;54.95;102179.72;2198795;39;115222;-53
2021/06/05 02:05:12;;;;;;;;;;;;;;;22.77;55.09;102172.09;2197802;39;114776;-53
2021/06/05 02:06:45;;;;;;;;;;;;;;;22.76;55.19;102173.25;2198888;39;114779;-52
2021/06/05 02:08:20;;;;;;;;;;;;;;;22.79;54.85;102170.69;2198650;39;115766;-52
2021/06/05 02:09:52;;;;;;;;;;;;;;;22.79;54.97;102169.84;2198657;39;114828;-52
2021/06/05 02:11:26;;;;;;;;;;;;;;;22.79;55.01;102172.66;2198350;39;114722;-53
2021/06/05 02:12:58;;;;;;;;;;;;;;;22.80;54.89;102180.00;2198252;39;114723;-52
2021/06/05 02:14:33;;;;;;;;;;;;;;;22.79;54.92;102173.50;2206370;39;114964;-52
2021/06/05 02:16:09;;;;;;;;;;;;;;;22.78;55.01;102177.47;2201258;39;114638;-52
2021/06/05 02:17:41;;;;;;;;;;;;;;;22.77;55.26;102177.75;2204135;39;114770;-53
2021/06/05 02:19:18;;;;;;;;;;;;;;;22.77;54.96;102183.38;2204680;39;114909;-53
2021/06/05 02:20:52;;;;;;;;;;;;;;;22.80;55.21;102182.81;2203315;39;115487;-53
2021/06/05 02:22:27;;;;;;;;;;;;;;;22.78;54.87;102193.53;2196025;39;114653;-53
2021/06/05 02:24:02;;;;;;;;;;;;;;;22.78;54.76;102185.06;2198371;39;115460;-53
2021/06/05 02:25:34;;;;;;;;;;;;;;;22.78;54.82;102187.88;2205001;39;116034;-52
2021/06/05 02:27:06;;;;;;;;;;;;;;;22.80;54.78;102182.81;2207617;39;115502;-53
2021/06/05 02:28:38;;;;;;;;;;;;;;;22.80;54.78;102188.44;2203272;39;115631;-52
2021/06/05 02:30:14;;;;;;;;;;;;;;;22.79;54.87;102178.31;2203958;39;114551;-53
2021/06/05 02:31:46;;;;;;;;;;;;;;;22.78;55.22;102185.06;2202638;39;115564;-53
2021/06/05 02:33:18;;;;;;;;;;;;;;;22.76;54.91;102187.34;2203179;39;115875;-52
2021/06/05 02:34:51;;;;;;;;;;;;;;;22.77;54.75;102181.41;2198237;39;114693;-53
2021/06/05 02:36:23;;;;;;;;;;;;;;;22.75;55.02;102185.66;2203001;39;115468;-54
2021/06/05 02:37:55;;;;;;;;;;;;;;;22.74;54.92;102179.19;2205352;39;115545;-53
2021/06/05 02:39:28;;;;;;;;;;;;;;;22.74;55.07;102182.00;2207869;39;115935;-53
2021/06/05 02:41:02;;;;;;;;;;;;;;;22.73;54.96;102179.47;2205021;39;113841;-53
2021/06/05 02:42:34;;;;;;;;;;;;;;;22.73;55.14;102185.09;2200875;39;113826;-52
2021/06/05 02:44:07;;;;;;;;;;;;;;;22.71;55.01;102171.34;2197750;39;113650;-53
2021/06/05 02:45:39;;;;;;;;;;;;;;;22.70;55.04;102175.28;2190469;39;113806;-53
2021/06/05 02:47:11;;;;;;;;;;;;;;;22.71;55.06;102178.94;2203424;39;113831;-52
2021/06/05 02:48:46;;;;;;;;;;;;;;;22.71;54.96;102171.34;2205735;39;113698;-53
2021/06/05 02:50:18;;;;;;;;;;;;;;;22.73;54.96;102179.47;2204621;39;114133;-53
2021/06/05 02:51:53;;;;;;;;;;;;;;;22.72;54.89;102175.81;2202873;39;114030;-53
2021/06/05 02:53:24;;;;;;;;;;;;;;;22.71;55.12;102173.31;2208863;39;114100;-52
2021/06/05 02:54:59;;;;;;;;;;;;;;;22.71;55.43;102173.31;2204963;39;113815;-52
2021/06/05 02:56:30;;;;;;;;;;;;;;;22.70;54.88;102172.47;2196049;39;113650;-59
2021/06/05 02:58:05;;;;;;;;;;;;;;;22.71;55.08;102167.66;2187039;39;113884;-52
2021/06/05 02:59:37;;;;;;;;;;;;;;;22.68;55.16;102166.22;2195279;39;114736;-52
2021/06/05 03:01:10;;;;;;;;;;;;;;;22.70;55.15;102169.63;2203276;39;113860;-53
2021/06/05 03:02:42;;;;;;;;;;;;;;;22.71;55.14;102168.50;2205003;39;115820;-52
2021/06/05 03:04:14;;;;;;;;;;;;;;;22.68;55.05;102168.19;2202588;39;114711;-52
2021/06/05 03:05:46;;;;;;;;;;;;;;;22.68;55.28;102162.56;2197611;39;115421;-52
2021/06/05 03:07:18;;;;;;;;;;;;;;;22.69;55.23;102167.91;2201880;39;114680;-52
2021/06/05 03:08:50;;;;;;;;;;;;;;;22.68;55.22;102163.41;2193653;39;114715;-52
2021/06/05 03:10:23;;;;;;;;;;;;;;;22.69;55.16;102159.47;2192681;39;114699;-52
2021/06/05 03:11:55;;;;;;;;;;;;;;;22.68;55.45;102160.59;2202130;39;114704;-53
2021/06/05 03:13:27;;;;;;;;;;;;;;;22.70;54.95;102155.56;2202320;39;115112;-53
2021/06/05 03:14:59;;;;;;;;;;;;;;;22.69;55.09;102156.66;2199266;39;115162;-52
2021/06/05 03:16:31;;;;;;;;;;;;;;;22.71;55.18;102150.75;2198053;39;115542;-53
2021/06/05 03:18:04;;;;;;;;;;;;;;;22.71;55.38;102153.59;2202149;39;115259;-53
2021/06/05 03:19:36;;;;;;;;;;;;;;;22.71;55.62;102145.97;2197787;39;114701;-52
2021/06/05 03:21:09;;;;;;;;;;;;;;;22.69;55.49;102145.38;2195623;39;113733;-52
2021/06/05 03:22:41;;;;;;;;;;;;;;;22.69;55.47;102145.38;2203443;39;114711;-54
2021/06/05 03:24:13;;;;;;;;;;;;;;;22.70;55.44;102143.44;2204457;39;115487;-52
2021/06/05 03:25:46;;;;;;;;;;;;;;;22.69;55.65;102142.56;2204270;39;115000;-53
2021/06/05 03:27:18;;;;;;;;;;;;;;;22.70;55.48;102143.44;2204642;39;115603;-52
2021/06/05 03:28:50;;;;;;;;;;;;;;;22.70;55.66;102138.66;2205347;39;115504;-53
2021/06/05 03:30:23;;;;;;;;;;;;;;;22.70;55.30;102141.47;2197931;39;115955;-52
2021/06/05 03:31:56;;;;;;;;;;;;;;;22.71;55.71;102142.31;2203110;39;115486;-52
2021/06/05 03:33:28;;;;;;;;;;;;;;;22.72;55.27;102139.19;2206622;39;115842;-53
2021/06/05 03:35:02;;;;;;;;;;;;;;;22.73;55.60;102146.50;2205927;39;115513;-53
2021/06/05 03:36:34;;;;;;;;;;;;;;;22.74;55.53;102139.75;2202499;39;116188;-53
2021/06/05 03:38:06;;;;;;;;;;;;;;;22.73;55.65;102149.31;2196315;39;115507;-52
2021/06/05 03:39:38;;;;;;;;;;;;;;;22.73;55.53;102146.50;2195895;39;114616;-52
2021/06/05 03:41:11;;;;;;;;;;;;;;;22.74;55.61;102141.72;2202615;39;114857;-52
2021/06/05 03:42:42;;;;;;;;;;;;;;;22.73;55.56;102138.03;2197864;39;114902;-52
2021/06/05 03:44:18;;;;;;;;;;;;;;;22.73;55.62;102145.66;2202758;39;115599;-52
2021/06/05 03:45:50;;;;;;;;;;;;;;;22.73;55.80;102148.47;2206498;39;115968;-52
2021/06/05 03:47:22;;;;;;;;;;;;;;;22.74;55.62;102151.00;2194585;39;114146;-53
2021/06/05 03:48:54;;;;;;;;;;;;;;;22.73;55.43;102142.84;2200291;39;113697;-53
2021/06/05 03:50:28;;;;;;;;;;;;;;;22.74;55.53;102155.81;2201433;39;113809;-52
2021/06/05 03:52:00;;;;;;;;;;;;;;;22.74;55.53;102145.38;2205423;39;113648;-52
2021/06/05 03:53:33;;;;;;;;;;;;;;;22.75;55.79;102141.44;2199655;39;113553;-53
2021/06/05 03:55:06;;;;;;;;;;;;;;;22.76;55.80;102142.28;2195992;39;113898;-52
2021/06/05 03:56:37;;;;;;;;;;;;;;;22.76;55.76;102143.09;2196329;39;113869;-53
2021/06/05 03:58:10;;;;;;;;;;;;;;;22.74;55.73;102138.91;2203049;39;113775;-52
2021/06/05 03:59:42;;;;;;;;;;;;;;;22.74;55.77;102141.72;2205353;39;113569;-53
2021/06/05 04:01:16;;;;;;;;;;;;;;;22.75;55.47;102141.44;2204179;39;113918;-52
2021/06/05 04:02:48;;;;;;;;;;;;;;;22.76;56.13;102133.81;2194607;39;114013;-52
2021/06/05 04:04:22;;;;;;;;;;;;;;;22.75;55.76;102149.03;2201749;39;113780;-52
2021/06/05 04:05:53;;;;;;;;;;;;;;;22.75;55.89;102143.41;2202513;39;114047;-52
2021/06/05 04:07:25;;;;;;;;;;;;;;;22.72;56.01;102141.16;2207925;39;113886;-53
2021/06/05 04:08:58;;;;;;;;;;;;;;;22.70;55.80;102137.81;2205718;39;114721;-52
2021/06/05 04:10:30;;;;;;;;;;;;;;;22.70;55.93;102144.28;2197323;39;115429;-53
2021/06/05 04:12:03;;;;;;;;;;;;;;;22.69;56.01;102136.94;2207833;39;115108;-53
2021/06/05 04:13:35;;;;;;;;;;;;;;;22.68;55.94;102131.56;2211187;39;114720;-52
2021/06/05 04:15:08;;;;;;;;;;;;;;;22.68;55.99;102131.56;2204021;39;115116;-52
2021/06/05 04:16:40;;;;;;;;;;;;;;;22.67;56.05;102136.38;2198960;39;113906;-53
2021/06/05 04:18:15;;;;;;;;;;;;;;;22.70;55.85;102146.25;2202404;39;114276;-52
2021/06/05 04:19:48;;;;;;;;;;;;;;;22.67;55.92;102136.38;2197406;39;114884;-53
2021/06/05 04:21:21;;;;;;;;;;;;;;;22.66;56.06;102137.53;2203685;39;115113;-52
2021/06/05 04:22:53;;;;;;;;;;;;;;;22.65;56.08;102138.66;2197454;39;113829;-52
2021/06/05 04:24:26;;;;;;;;;;;;;;;22.66;56.00;102139.50;2195640;39;115370;-52
2021/06/05 04:25:58;;;;;;;;;;;;;;;22.65;56.00;102146.25;2210114;39;114694;-52
2021/06/05 04:27:30;;;;;;;;;;;;;;;22.65;56.05;102146.25;2198636;39;114871;-53
2021/06/05 04:29:02;;;;;;;;;;;;;;;22.65;55.92;102146.25;2201848;39;114737;-52
2021/06/05 04:30:35;;;;;;;;;;;;;;;22.63;55.98;102153.03;2195096;39;115507;-53
2021/06/05 04:32:07;;;;;;;;;;;;;;;22.64;55.92;102145.41;2195480;39;114441;-52
2021/06/05 04:33:39;;;;;;;;;;;;;;;22.65;55.98;102149.91;2196131;39;115506;-52
2021/06/05 04:35:11;;;;;;;;;;;;;;;22.66;55.83;102145.97;2197524;39;114532;-53
2021/06/05 04:36:43;;;;;;;;;;;;;;;22.65;55.87;102151.91;2196385;39;114604;-53
2021/06/05 04:38:15;;;;;;;;;;;;;;;22.65;55.92;102149.06;2201718;39;114662;-52
2021/06/05 04:39:47;;;;;;;;;;;;;;;22.63;55.80;102155.84;2203590;39;116487;-52
2021/06/05 04:41:19;;;;;;;;;;;;;;;22.65;55.85;102146.25;2204951;39;115501;-53
2021/06/05 04:42:51;;;;;;;;;;;;;;;22.64;55.92;102153.88;2197595;39;116049;-52
2021/06/05 04:44:23;;;;;;;;;;;;;;;22.65;55.89;102158.38;2202971;39;115748;-52
2021/06/05 04:45:55;;;;;;;;;;;;;;;22.65;55.97;102154.72;2204188;39;115610;-53
2021/06/05 04:47:27;;;;;;;;;;;;;;;22.64;55.98;102153.88;2197370;39;115639;-52
2021/06/05 04:48:59;;;;;;;;;;;;;;;22.63;55.86;102153.03;2204751;39;114659;-53
2021/06/05 04:50:32;;;;;;;;;;;;;;;22.63;55.79;102155.00;2206825;39;115499;-53
2021/06/05 04:52:05;;;;;;;;;;;;;;;22.62;55.89;102159.78;2195140;39;113930;-53
2021/06/05 04:53:37;;;;;;;;;;;;;;;22.61;55.87;102163.75;2202039;39;113741;-52
2021/06/05 04:55:10;;;;;;;;;;;;;;;22.62;55.85;102162.59;2204610;39;113669;-53
2021/06/05 04:56:53;;;;;;;;;;;;;;;22.61;55.80;102155.31;2196842;39;113846;-52
2021/06/05 04:58:25;;;;;;;;;;;;;;;22.62;55.75;102158.97;2205636;39;114166;-52
2021/06/05 04:59:58;;;;;;;;;;;;;;;22.61;56.04;102162.91;2203358;39;113561;-52
2021/06/05 05:01:30;;;;;;;;;;;;;;;22.63;55.78;102161.47;2199233;39;114000;-52
2021/06/05 05:03:02;;;;;;;;;;;;;;;22.62;55.84;102159.78;2195625;39;113955;-52
2021/06/05 05:04:34;;;;;;;;;;;;;;;22.62;55.86;102164.59;2191301;39;114327;-53
2021/06/05 05:06:06;;;;;;;;;;;;;;;22.61;55.90;102165.72;2199419;39;114105;-52
2021/06/05 05:07:38;;;;;;;;;;;;;;;22.61;55.71;102160.09;2204940;39;113670;-52
2021/06/05 05:09:11;;;;;;;;;;;;;;;22.62;55.81;102167.44;2205466;39;113919;-53
2021/06/05 05:10:44;;;;;;;;;;;;;;;22.61;55.73;102168.56;2197927;39;113899;-53
2021/06/05 05:12:16;;;;;;;;;;;;;;;22.61;55.98;102162.91;2197757;39;114178;-53
2021/06/05 05:13:48;;;;;;;;;;;;;;;22.62;55.73;102168.22;2194319;39;113736;-53
2021/06/05 05:15:20;;;;;;;;;;;;;;;22.63;55.64;102158.66;2203307;39;114699;-53
2021/06/05 05:16:52;;;;;;;;;;;;;;;22.63;55.66;102181.19;2196964;39;115078;-53
2021/06/05 05:18:24;;;;;;;;;;;;;;;22.62;55.59;102171.06;2205586;39;114774;-52
2021/06/05 05:19:56;;;;;;;;;;;;;;;22.63;55.73;102169.09;2197388;39;114843;-53
2021/06/05 05:21:28;;;;;;;;;;;;;;;22.63;55.61;102171.91;2202054;39;114884;-52
2021/06/05 05:23:00;;;;;;;;;;;;;;;22.62;55.62;102179.50;2204871;39;115377;-52
2021/06/05 05:24:34;;;;;;;;;;;;;;;22.62;55.72;102182.31;2198765;39;114064;-54
2021/06/05 05:26:06;;;;;;;;;;;;;;;22.64;55.54;102179.22;2207241;39;114562;-53
2021/06/05 05:27:38;;;;;;;;;;;;;;;22.63;55.54;102184.00;2197335;39;114939;-52
2021/06/05 05:29:10;;;;;;;;;;;;;;;22.63;55.63;102185.97;2202766;39;113768;-53
2021/06/05 05:30:44;;;;;;;;;;;;;;;22.63;55.66;102194.44;2197512;39;114712;-52
2021/06/05 05:32:16;;;;;;;;;;;;;;;22.63;55.69;102188.81;2198598;39;114884;-52
2021/06/05 05:33:48;;;;;;;;;;;;;;;22.66;55.59;102187.38;2203299;39;114753;-52
2021/06/05 05:35:20;;;;;;;;;;;;;;;22.66;55.52;102193.88;2200514;39;113782;-52
2021/06/05 05:36:52;;;;;;;;;;;;;;;22.66;55.46;102191.06;2197982;39;115923;-52
2021/06/05 05:38:24;;;;;;;;;;;;;;;22.66;55.48;102196.69;2203316;39;115427;-52
2021/06/05 05:39:56;;;;;;;;;;;;;;;22.65;55.46;102199.78;2205157;39;115853;-55
2021/06/05 05:41:28;;;;;;;;;;;;;;;22.63;55.53;102198.09;2200720;39;115513;-52
2021/06/05 05:43:00;;;;;;;;;;;;;;;22.65;55.67;102200.63;2193519;39;115553;-53
2021/06/05 05:44:32;;;;;;;;;;;;;;;22.66;55.54;102207.97;2202459;39;115875;-53
2021/06/05 05:46:05;;;;;;;;;;;;;;;22.63;55.66;102205.72;2203190;39;114729;-53
2021/06/05 05:47:37;;;;;;;;;;;;;;;22.62;55.72;102204.84;2197853;39;115528;-53
2021/06/05 05:49:09;;;;;;;;;;;;;;;22.61;55.71;102208.84;2202156;39;114589;-52
2021/06/05 05:50:43;;;;;;;;;;;;;;;22.63;55.85;102216.97;2197925;39;115488;-53
2021/06/05 05:52:14;;;;;;;;;;;;;;;22.62;56.21;102218.13;2196740;39;115812;-52
2021/06/05 05:53:46;;;;;;;;;;;;;;;22.64;55.75;102210.22;2195780;39;115511;-52
2021/06/05 05:55:18;;;;;;;;;;;;;;;22.62;55.52;102213.31;2202895;39;114524;-52
2021/06/05 05:56:50;;;;;;;;;;;;;;;22.62;55.85;102221.75;2200756;39;116257;-52
2021/06/05 05:58:23;;;;;;;;;;;;;;;22.61;55.59;102220.09;2203357;39;113875;-52
2021/06/05 05:59:55;;;;;;;;;;;;;;;22.60;55.65;102211.94;2199174;39;114057;-53
2021/06/05 06:01:27;;;;;;;;;;;;;;;22.58;55.83;102217.84;2203388;39;113999;-52
2021/06/05 06:02:59;;;;;;;;;;;;;;;22.58;56.12;102220.66;2197757;39;113723;-53
2021/06/05 06:04:32;;;;;;;;;;;;;;;22.59;55.78;102213.91;2199047;39;113863;-53
2021/06/05 06:06:06;;;;;;;;;;;;;;;22.60;55.82;102226.88;2201146;39;113659;-52
2021/06/05 06:07:39;;;;;;;;;;;;;;;22.60;55.58;102226.03;2206863;39;113591;-52
2021/06/05 06:09:11;;;;;;;;;;;;;;;22.60;55.48;102226.88;2198516;39;113885;-53
2021/06/05 06:10:43;;;;;;;;;;;;;;;22.60;55.84;102223.19;2194143;39;113947;-52
2021/06/05 06:12:14;;;;;;;;;;;;;;;22.59;55.53;102227.16;2206814;39;116105;-52
2021/06/05 06:13:47;;;;;;;;;;;;;;;22.57;55.61;102227.47;2210499;39;113883;-52
2021/06/05 06:15:22;;;;;;;;;;;;;;;22.57;55.45;102229.44;2194999;39;113862;-52
2021/06/05 06:16:54;;;;;;;;;;;;;;;22.57;55.61;102220.97;2194124;39;114151;-52
2021/06/05 06:18:26;;;;;;;;;;;;;;;22.58;55.53;102228.28;2205628;39;113747;-52
2021/06/05 06:19:57;;;;;;;;;;;;;;;22.56;55.82;102234.22;2204284;39;114111;-52
2021/06/05 06:21:29;;;;;;;;;;;;;;;22.54;55.79;102228.03;2204562;39;114713;-52
2021/06/05 06:23:01;;;;;;;;;;;;;;;22.54;55.51;102225.19;2198361;39;114508;-52
2021/06/05 06:24:33;;;;;;;;;;;;;;;22.52;55.62;102221.84;2202404;39;113829;-53
2021/06/05 06:26:08;;;;;;;;;;;;;;;22.55;55.60;102229.72;2205006;39;114768;-52
2021/06/05 06:27:40;;;;;;;;;;;;;;;22.55;55.61;102226.91;2205065;39;115240;-53
2021/06/05 06:30:47;;;;;;;;;;;;;;;22.54;55.71;102232.81;2198842;39;114803;-53
2021/06/05 06:32:19;;;;;;;;;;;;;;;22.54;55.64;102224.34;2207195;39;114194;-53
2021/06/05 06:33:51;;;;;;;;;;;;;;;22.56;55.34;102237.03;2198680;39;114937;-53
2021/06/05 06:35:24;;;;;;;;;;;;;;;22.56;55.42;102231.41;2202009;39;115242;-53
2021/06/05 06:36:59;;;;;;;;;;;;;;;22.56;55.29;102239.84;2197325;39;115495;-52
2021/06/05 06:38:34;;;;;;;;;;;;;;;22.56;55.45;102239.00;2202322;39;113725;-52
2021/06/05 06:40:06;;;;;;;;;;;;;;;22.54;55.31;102235.63;2207204;39;114913;-52
2021/06/05 06:41:39;;;;;;;;;;;;;;;22.55;55.39;102243.78;2204452;39;115465;-53
2021/06/05 06:43:12;;;;;;;;;;;;;;;22.54;55.41;102236.47;2204468;39;115486;-52
2021/06/05 06:44:44;;;;;;;;;;;;;;;22.52;55.63;102244.38;2198334;39;115501;-53
2021/06/05 06:46:20;;;;;;;;;;;;;;;22.53;55.50;102242.41;2197566;39;115710;-53
2021/06/05 06:47:53;;;;;;;;;;;;;;;22.54;55.50;102244.06;2198039;39;115850;-52
2021/06/05 06:49:24;;;;;;;;;;;;;;;22.52;55.45;102250.03;2202318;39;115492;-53
2021/06/05 06:50:57;;;;;;;;;;;;;;;22.54;55.35;102244.06;2203577;39;115449;-53
2021/06/05 06:52:28;;;;;;;;;;;;;;;22.53;55.20;102239.59;2204665;39;115531;-52
2021/06/05 06:54:00;;;;;;;;;;;;;;;22.54;55.47;102250.56;2204549;39;115400;-52
2021/06/05 06:55:32;;;;;;;;;;;;;;;22.55;55.16;102255.06;2204919;39;116111;-52
2021/06/05 06:57:05;;;;;;;;;;;;;;;22.54;55.41;102252.53;2204243;39;115512;-53
2021/06/05 06:58:37;;;;;;;;;;;;;;;22.55;55.27;102246.63;2205171;39;114923;-53
2021/06/05 07:00:12;;;;;;;;;;;;;;;22.54;55.25;102244.91;2204987;39;116173;-53
2021/06/05 07:01:43;;;;;;;;;;;;;;;22.51;55.40;102248.31;2198027;39;115621;-62
2021/06/05 07:03:16;;;;;;;;;;;;;;;22.51;55.23;102248.31;2205091;39;115637;-53
2021/06/05 07:04:50;;;;;;;;;;;;;;;22.52;55.27;102250.03;2196535;39;113873;-53
2021/06/05 07:06:25;;;;;;;;;;;;;;;22.52;55.22;102252.84;2203908;39;113964;-53
2021/06/05 07:08:00;;;;;;;;;;;;;;;22.51;55.40;102248.31;2206687;39;113902;-53
2021/06/05 07:09:32;;;;;;;;;;;;;;;22.53;55.18;102253.69;2204344;39;113931;-54
2021/06/05 07:11:06;;;;;;;;;;;;;;;22.50;55.21;102255.09;2203325;39;113763;-53
2021/06/05 07:12:38;;;;;;;;;;;;;;;22.51;55.37;102256.78;2196578;39;113571;-53
2021/06/05 07:14:12;;;;;;;;;;;;;;;22.51;55.29;102253.13;2206349;39;113922;-53
2021/06/05 07:15:44;;;;;;;;;;;;;;;22.51;55.27;102259.59;2195501;39;113908;-52
2021/06/05 07:17:16;;;;;;;;;;;;;;;22.50;55.19;102249.47;2202443;39;113810;-53
2021/06/05 07:18:49;;;;;;;;;;;;;;;22.50;55.20;102257.91;2199100;39;113881;-53
2021/06/05 07:20:21;;;;;;;;;;;;;;;22.50;55.14;102249.47;2194233;39;113882;-53
2021/06/05 07:21:53;;;;;;;;;;;;;;;22.49;55.15;102253.41;2201120;39;114040;-53
2021/06/05 07:23:28;;;;;;;;;;;;;;;22.50;55.15;102252.28;2204266;39;114117;-53
2021/06/05 07:24:59;;;;;;;;;;;;;;;22.49;55.25;102252.56;2204283;39;113922;-52
2021/06/05 07:26:31;;;;;;;;;;;;;;;22.49;55.28;102246.91;2201099;39;115362;-53
2021/06/05 07:28:06;;;;;;;;;;;;;;;22.49;55.24;102247.75;2197529;39;114746;-53
2021/06/05 07:29:38;;;;;;;;;;;;;;;22.48;55.33;102251.75;2203894;39;114191;-52
2021/06/05 07:31:12;;;;;;;;;;;;;;;22.49;55.35;102253.41;2204705;39;114755;-52
2021/06/05 07:32:44;;;;;;;;;;;;;;;22.49;55.30;102250.59;2197550;39;115329;-52
2021/06/05 07:34:17;;;;;;;;;;;;;;;22.50;55.08;102257.91;2204883;39;114877;-53
2021/06/05 07:35:49;;;;;;;;;;;;;;;22.49;55.25;102249.72;2197830;39;114770;-54
2021/06/05 07:37:21;;;;;;;;;;;;;;;22.48;55.09;102243.28;2190120;39;113806;-52
2021/06/05 07:38:53;;;;;;;;;;;;;;;22.49;55.18;102244.09;2199176;39;114744;-53
2021/06/05 07:40:25;;;;;;;;;;;;;;;22.46;55.31;102251.16;2197825;39;114244;-53
2021/06/05 07:41:59;;;;;;;;;;;;;;;22.47;55.18;102252.88;2202362;39;114882;-53
2021/06/05 07:43:33;;;;;;;;;;;;;;;22.47;55.48;102250.03;2198115;39;115795;-53
2021/06/05 07:45:06;;;;;;;;;;;;;;;22.47;55.46;102252.88;2196055;39;113904;-53
2021/06/05 07:46:40;;;;;;;;;;;;;;;22.48;55.16;102246.09;2198900;39;113807;-53
2021/06/05 07:48:12;;;;;;;;;;;;;;;22.50;55.07;102248.59;2201994;39;115618;-52
2021/06/05 07:49:44;;;;;;;;;;;;;;;22.50;55.13;102252.28;2198560;39;117830;-53
2021/06/05 07:51:17;;;;;;;;;;;;;;;22.49;55.21;102256.22;2200755;39;116258;-53
2021/06/05 07:52:50;;;;;;;;;;;;;;;22.48;55.31;102245.25;2197491;39;115626;-53